Time;durP1;ratioP1;P1;durP2;ratioP2;P2;SDS_P1;SDS_P2;PMS_P1;PMS_P2;Temp;Humidity;BMP_temperature;BMP_pressure;BME280_temperature;BME280_humidity;BME280_pressure;Samples;Min_cycle;Max_cycle;Signal;HPM_P1;HPM_P2
2022/08/31 00:06:16;;;;;;;8.27;7.32;;;16.10;99.90;;;;;;5060084;28;20085;-64
2022/08/31 00:08:44;;;;;;;8.45;7.00;;;16.10;99.90;;;;;;5075331;28;20055;-65
2022/08/31 00:11:12;;;;;;;8.85;7.38;;;16.10;99.90;;;;;;5039630;28;20051;-65
2022/08/31 00:13:41;;;;;;;8.13;6.60;;;16.10;99.90;;;;;;5024791;28;20045;-65
2022/08/31 00:16:11;;;;;;;7.63;6.60;;;16.10;99.90;;;;;;5056682;28;20126;-65
2022/08/31 00:18:39;;;;;;;13.70;8.13;;;16.10;99.90;;;;;;5056080;28;20050;-66
2022/08/31 00:21:08;;;;;;;12.55;9.13;;;16.10;99.90;;;;;;5056700;28;20042;-66
2022/08/31 00:23:36;;;;;;;9.02;7.25;;;16.10;99.90;;;;;;5074553;28;20048;-65
2022/08/31 00:26:05;;;;;;;15.10;8.38;;;16.00;99.90;;;;;;5056867;28;20690;-65
2022/08/31 00:28:33;;;;;;;10.40;8.88;;;16.00;99.90;;;;;;5056445;28;20925;-65
2022/08/31 00:31:01;;;;;;;13.65;8.43;;;15.90;99.90;;;;;;5074853;28;20048;-65
2022/08/31 00:33:29;;;;;;;14.85;8.48;;;15.90;99.90;;;;;;5053723;28;20585;-66
2022/08/31 00:35:57;;;;;;;10.57;9.38;;;15.80;99.90;;;;;;5071976;28;20084;-65
2022/08/31 00:38:27;;;;;;;13.77;8.57;;;15.80;99.90;;;;;;5056367;28;20040;-65
2022/08/31 00:40:55;;;;;;;13.15;9.57;;;15.80;99.90;;;;;;5055972;28;20040;-65
2022/08/31 00:43:44;;;;;;;12.57;8.65;;;15.80;99.90;;;;;;5054777;28;20040;-65
2022/08/31 00:46:14;;;;;;;11.60;8.77;;;15.70;99.90;;;;;;5056404;28;20753;-65
2022/08/31 00:48:56;;;;;;;13.50;10.13;;;15.70;99.90;;;;;;5055183;28;20044;-65
2022/08/31 00:51:27;;;;;;;12.85;10.00;;;15.70;99.90;;;;;;5074127;28;20658;-65
2022/08/31 00:53:56;;;;;;;15.48;9.48;;;15.70;99.90;;;;;;5073464;28;20059;-66
2022/08/31 00:56:25;;;;;;;16.40;9.80;;;15.70;99.90;;;;;;5052126;28;20533;-64
2022/08/31 00:58:54;;;;;;;13.00;8.80;;;15.70;99.90;;;;;;5056056;28;20040;-65
2022/08/31 01:01:22;;;;;;;9.88;8.82;;;15.70;99.90;;;;;;5074333;28;20780;-65
2022/08/31 01:03:50;;;;;;;10.50;8.63;;;15.70;99.90;;;;;;5074539;28;20900;-65
2022/08/31 01:06:19;;;;;;;10.77;9.63;;;15.70;99.90;;;;;;5056846;28;20047;-66
2022/08/31 01:08:47;;;;;;;9.75;8.75;;;15.70;99.90;;;;;;5056971;28;20552;-66
2022/08/31 01:11:18;;;;;;;8.93;7.88;;;15.70;99.90;;;;;;5067816;28;20048;-65
2022/08/31 01:13:47;;;;;;;13.52;9.35;;;15.70;99.90;;;;;;5058282;28;20044;-65
2022/08/31 01:16:39;;;;;;;14.68;10.02;;;15.80;99.90;;;;;;5055983;28;20289;-65
2022/08/31 01:19:30;;;;;;;12.35;10.82;;;15.80;99.90;;;;;;5074365;28;20039;-64
2022/08/31 01:22:28;;;;;;;12.82;9.68;;;15.70;99.90;;;;;;5055940;28;20040;-64
2022/08/31 01:24:57;;;;;;;;;;;15.80;99.90;;;;;;5056428;28;20047;-66
2022/08/31 01:27:31;;;;;;;20.35;8.63;;;15.70;99.90;;;;;;5055534;28;20018;-65
2022/08/31 01:30:09;;;;;;;12.05;9.68;;;15.70;99.90;;;;;;5074064;28;20040;-64
2022/08/31 01:32:38;;;;;;;9.68;8.60;;;15.80;99.90;;;;;;5018262;28;20040;-66
2022/08/31 01:35:07;;;;;;;13.98;8.80;;;15.80;99.90;;;;;;5051746;28;20346;-64
2022/08/31 01:37:38;;;;;;;11.98;9.13;;;15.80;99.90;;;;;;5049458;28;20128;-65
2022/08/31 01:40:09;;;;;;;12.93;9.43;;;15.80;99.90;;;;;;5019374;28;20072;-65
2022/08/31 01:42:37;;;;;;;8.88;7.53;;;15.80;99.90;;;;;;5052101;28;20063;-66
2022/08/31 01:45:08;;;;;;;7.15;6.45;;;15.90;99.90;;;;;;5035125;28;20048;-65
2022/08/31 01:47:40;;;;;;;7.80;6.40;;;15.90;99.90;;;;;;5052870;28;20049;-65
2022/08/31 01:50:09;;;;;;;10.05;6.22;;;15.90;99.90;;;;;;5052308;28;20091;-65
2022/08/31 01:52:38;;;;;;;7.47;6.07;;;15.90;99.90;;;;;;5036996;28;20064;-65
2022/08/31 01:55:07;;;;;;;6.35;5.60;;;15.90;99.90;;;;;;5055881;28;20044;-65
2022/08/31 01:57:35;;;;;;;9.63;5.82;;;15.90;99.90;;;;;;5058446;28;20051;-64
2022/08/31 02:00:23;;;;;;;11.70;6.53;;;15.90;99.90;;;;;;5061557;28;20048;-65
2022/08/31 02:02:52;;;;;;;6.13;5.47;;;15.90;99.90;;;;;;5059233;28;20479;-66
2022/08/31 02:05:20;;;;;;;7.43;5.60;;;15.90;99.90;;;;;;5059882;28;20051;-65
2022/08/31 02:07:48;;;;;;;6.80;6.10;;;15.80;99.90;;;;;;5076338;28;20210;-66
2022/08/31 02:10:16;;;;;;;6.15;5.53;;;15.80;99.90;;;;;;5071319;28;20085;-65
2022/08/31 02:12:44;;;;;;;10.75;6.80;;;15.80;99.90;;;;;;5050016;28;20046;-66
2022/08/31 02:15:12;;;;;;;11.93;7.78;;;15.80;99.90;;;;;;5035554;28;20067;-65
2022/08/31 02:17:41;;;;;;;11.63;7.38;;;15.80;99.90;;;;;;5042128;28;20048;-66
2022/08/31 02:20:12;;;;;;;7.75;6.90;;;15.80;99.90;;;;;;5077047;28;20068;-65
2022/08/31 02:22:41;;;;;;;8.68;7.63;;;15.80;99.90;;;;;;5076892;28;20050;-66
2022/08/31 02:25:10;;;;;;;10.90;7.68;;;15.70;99.90;;;;;;5058605;28;20051;-67
2022/08/31 02:27:38;;;;;;;9.10;6.45;;;15.70;99.90;;;;;;5058804;28;20036;-65
2022/08/31 02:30:12;;;;;;;12.38;7.60;;;15.70;99.90;;;;;;5076744;28;20036;-65
2022/08/31 02:32:40;;;;;;;9.60;7.40;;;15.80;99.90;;;;;;5068263;28;20044;-65
2022/08/31 02:35:10;;;;;;;11.57;7.90;;;15.80;99.90;;;;;;5038345;28;20044;-66
2022/08/31 02:37:38;;;;;;;7.45;6.78;;;15.80;99.90;;;;;;5042141;28;20048;-66
2022/08/31 02:40:09;;;;;;;7.85;6.32;;;15.80;99.90;;;;;;5038592;28;20072;-66
2022/08/31 02:42:41;;;;;;;8.23;6.60;;;15.80;99.90;;;;;;5038160;28;20215;-65
2022/08/31 02:45:25;;;;;;;6.10;5.47;;;15.90;99.90;;;;;;5023914;28;20052;-65
2022/08/31 02:48:01;;;;;;;8.63;6.53;;;15.80;99.90;;;;;;5039507;28;20044;-65
2022/08/31 02:50:45;;;;;;;7.30;6.10;;;15.90;99.90;;;;;;5038084;28;20040;-66
2022/08/31 02:53:15;;;;;;;10.27;6.35;;;15.90;99.90;;;;;;5055875;28;20322;-65
2022/08/31 02:55:43;;;;;;;10.05;6.85;;;15.90;99.90;;;;;;5056817;28;20499;-65
2022/08/31 02:58:12;;;;;;;7.32;6.00;;;15.90;99.90;;;;;;5040170;28;20055;-65
2022/08/31 03:00:45;;;;;;;8.93;6.20;;;15.90;99.90;;;;;;5040660;28;20135;-65
2022/08/31 03:03:15;;;;;;;9.27;6.18;;;16.00;99.90;;;;;;5075470;28;20052;-66
2022/08/31 03:05:44;;;;;;;6.85;6.15;;;15.90;99.90;;;;;;5076461;28;20048;-66
2022/08/31 03:08:13;;;;;;;6.65;5.72;;;15.90;99.90;;;;;;5037355;28;20117;-67
2022/08/31 03:10:42;;;;;;;8.68;6.40;;;15.90;99.90;;;;;;5043060;28;20047;-65
2022/08/31 03:13:10;;;;;;;10.32;6.50;;;15.90;99.90;;;;;;5032333;28;20040;-66
2022/08/31 03:15:39;;;;;;;8.23;6.13;;;15.80;99.90;;;;;;5041354;28;20850;-65
2022/08/31 03:18:09;;;;;;;9.50;6.32;;;15.80;99.90;;;;;;5055909;28;20040;-66
2022/08/31 03:20:38;;;;;;;7.95;6.40;;;15.80;99.90;;;;;;5055976;28;20139;-66
2022/08/31 03:23:11;;;;;;;8.57;7.03;;;15.70;99.90;;;;;;5055783;28;20063;-64
2022/08/31 03:25:39;;;;;;;8.73;6.70;;;15.70;99.90;;;;;;5037558;28;20110;-66
2022/08/31 03:28:08;;;;;;;10.50;7.18;;;15.70;99.90;;;;;;5022626;28;20071;-65
2022/08/31 03:30:40;;;;;;;8.02;7.00;;;15.60;99.90;;;;;;5037545;28;20048;-65
2022/08/31 03:33:11;;;;;;;10.88;8.05;;;15.60;99.90;;;;;;5036752;28;20084;-66
2022/08/31 03:35:44;;;;;;;13.18;8.23;;;15.60;99.90;;;;;;5039317;28;20592;-66
2022/08/31 03:38:15;;;;;;;11.00;8.68;;;15.60;99.90;;;;;;5055897;28;20106;-64
2022/08/31 03:40:44;;;;;;;16.58;9.98;;;15.60;99.90;;;;;;5055319;28;20044;-64
2022/08/31 03:43:13;;;;;;;19.70;9.30;;;15.60;99.90;;;;;;5054983;28;20041;-65
2022/08/31 03:45:42;;;;;;;11.43;8.40;;;15.60;99.90;;;;;;5021390;28;20052;-65
2022/08/31 03:48:11;;;;;;;15.15;8.52;;;15.60;99.90;;;;;;5020634;28;20072;-65
2022/08/31 03:50:43;;;;;;;13.73;9.75;;;15.50;99.90;;;;;;5021309;28;20045;-65
2022/08/31 03:53:21;;;;;;;11.20;7.90;;;15.50;99.90;;;;;;5021549;28;20049;-65
2022/08/31 03:55:59;;;;;;;14.57;8.43;;;15.50;99.90;;;;;;5006123;28;20481;-65
2022/08/31 03:58:31;;;;;;;9.88;7.18;;;15.50;99.90;;;;;;5039142;28;20143;-65
2022/08/31 04:01:00;;;;;;;9.73;8.05;;;15.40;99.90;;;;;;5055486;28;20044;-64
2022/08/31 04:03:48;;;;;;;6.63;5.95;;;15.50;99.90;;;;;;5009153;28;20579;-64
2022/08/31 04:06:35;;;;;;;11.75;7.30;;;15.40;99.90;;;;;;5060315;28;20558;-64
2022/08/31 04:09:22;;;;;;;9.35;6.85;;;15.40;99.90;;;;;;5043765;28;20051;-64
2022/08/31 04:12:11;;;;;;;9.75;6.25;;;15.40;99.90;;;;;;5053294;28;20047;-64
2022/08/31 04:15:07;;;;;;;7.28;6.57;;;15.40;99.90;;;;;;5061673;28;20165;-63
2022/08/31 04:18:05;;;;;;;9.88;7.28;;;15.40;99.90;;;;;;5055161;28;20063;-64
2022/08/31 04:20:47;;;;;;;7.00;6.15;;;15.40;99.90;;;;;;5021868;28;20864;-64
2022/08/31 04:23:17;;;;;;;9.60;7.40;;;15.40;99.90;;;;;;5036587;28;20052;-64
2022/08/31 04:25:49;;;;;;;8.60;6.25;;;15.40;99.90;;;;;;5036355;28;20517;-64
2022/08/31 04:28:17;;;;;;;9.70;6.55;;;15.40;99.90;;;;;;5004102;28;20068;-65
2022/08/31 04:30:47;;;;;;;10.45;7.35;;;15.40;99.90;;;;;;5036230;28;20065;-65
2022/08/31 04:33:16;;;;;;;9.27;7.00;;;15.40;99.90;;;;;;5018312;28;20048;-64
2022/08/31 04:35:46;;;;;;;8.35;6.78;;;15.40;99.90;;;;;;5023123;28;20055;-65
2022/08/31 04:38:14;;;;;;;8.38;7.18;;;15.40;99.90;;;;;;5035410;28;20139;-65
2022/08/31 04:40:45;;;;;;;8.00;6.97;;;15.40;99.90;;;;;;5036194;28;20048;-65
2022/08/31 04:43:14;;;;;;;11.25;7.43;;;15.40;99.90;;;;;;5035168;28;20056;-64
2022/08/31 04:45:43;;;;;;;7.47;6.32;;;15.40;99.90;;;;;;5019933;28;20139;-64
2022/08/31 04:48:13;;;;;;;7.97;6.93;;;15.40;99.90;;;;;;5053801;28;20044;-66
2022/08/31 04:50:43;;;;;;;9.10;7.72;;;15.40;99.90;;;;;;5020534;28;20052;-65
2022/08/31 04:53:11;;;;;;;10.82;7.93;;;15.40;99.90;;;;;;5036403;28;20419;-66
2022/08/31 04:55:41;;;;;;;9.30;7.75;;;15.40;99.90;;;;;;5037380;28;20526;-67
2022/08/31 04:58:16;;;;;;;9.45;7.32;;;15.40;99.90;;;;;;5021911;28;20078;-66
2022/08/31 05:00:45;;;;;;;10.43;8.27;;;15.40;99.90;;;;;;5031425;28;20105;-66
2022/08/31 05:03:23;;;;;;;11.73;9.18;;;15.40;99.90;;;;;;5075289;28;20055;-67
2022/08/31 05:05:57;;;;;;;9.38;8.38;;;15.40;99.90;;;;;;5041242;28;20055;-65
2022/08/31 05:08:27;;;;;;;10.40;7.70;;;15.40;99.90;;;;;;5074105;28;20051;-64
2022/08/31 05:10:56;;;;;;;12.25;8.00;;;15.40;99.90;;;;;;5033693;28;20043;-66
2022/08/31 05:13:26;;;;;;;13.93;8.52;;;15.40;99.90;;;;;;5035651;28;20716;-66
2022/08/31 05:15:56;;;;;;;10.40;7.32;;;15.40;99.90;;;;;;5040076;28;20036;-66
2022/08/31 05:18:25;;;;;;;9.43;7.97;;;15.40;99.90;;;;;;5056885;28;20052;-66
2022/08/31 05:20:56;;;;;;;9.60;7.90;;;15.40;99.90;;;;;;5055474;28;20567;-66
2022/08/31 05:23:26;;;;;;;9.88;7.80;;;15.40;99.90;;;;;;5055688;28;20076;-65
2022/08/31 05:25:54;;;;;;;9.57;7.80;;;15.40;99.90;;;;;;5056381;28;20044;-65
2022/08/31 05:28:26;;;;;;;9.80;7.70;;;15.40;99.90;;;;;;5041790;28;20878;-65
2022/08/31 05:30:56;;;;;;;9.38;7.90;;;15.50;99.90;;;;;;5059922;28;20040;-64
2022/08/31 05:33:43;;;;;;;10.27;9.23;;;15.50;99.90;;;;;;5038736;28;20191;-53
2022/08/31 05:36:16;;;;;;;12.82;10.43;;;15.50;99.90;;;;;;5027664;28;20082;-53
2022/08/31 05:38:45;;;;;;;12.68;10.38;;;15.50;99.90;;;;;;5022632;28;20055;-52
2022/08/31 05:41:14;;;;;;;13.30;9.65;;;15.50;99.90;;;;;;5039977;28;20045;-53
2022/08/31 05:43:43;;;;;;;12.55;10.02;;;15.50;99.90;;;;;;5038686;28;20053;-53
2022/08/31 05:46:14;;;;;;;14.90;11.77;;;15.50;99.90;;;;;;5039875;28;20044;-52
2022/08/31 05:48:43;;;;;;;13.38;10.48;;;15.40;99.90;;;;;;5038390;28;20068;-54
2022/08/31 05:51:19;;;;;;;14.07;10.77;;;15.40;99.90;;;;;;5039540;28;20051;-55
2022/08/31 05:53:49;;;;;;;13.80;11.40;;;15.40;99.90;;;;;;5023502;28;20052;-55
2022/08/31 05:56:22;;;;;;;15.23;12.77;;;15.30;99.90;;;;;;5039605;28;20462;-53
2022/08/31 05:58:53;;;;;;;13.32;10.40;;;15.30;99.90;;;;;;5038853;28;20056;-52
2022/08/31 06:01:31;;;;;;;12.18;9.63;;;15.30;99.90;;;;;;5045136;28;20036;-53
2022/08/31 06:04:18;;;;;;;13.23;10.75;;;15.20;99.90;;;;;;5058803;28;20162;-52
2022/08/31 06:06:47;;;;;;;14.25;10.82;;;15.30;99.90;;;;;;5077086;28;20641;-54
2022/08/31 06:09:20;;;;;;;15.18;12.07;;;15.30;99.90;;;;;;5041066;28;20052;-53
2022/08/31 06:11:50;;;;;;;19.25;11.75;;;15.30;99.90;;;;;;5039427;28;20068;-54
2022/08/31 06:14:21;;;;;;;11.43;9.80;;;15.30;99.90;;;;;;5053190;28;20086;-54
2022/08/31 06:16:55;;;;;;;16.35;13.10;;;15.20;99.90;;;;;;5022770;28;20044;-53
2022/08/31 06:19:24;;;;;;;19.73;12.50;;;15.20;99.90;;;;;;5039362;28;20052;-54
2022/08/31 06:21:56;;;;;;;15.77;11.52;;;15.20;99.90;;;;;;5042464;28;20136;-53
2022/08/31 06:24:27;;;;;;;19.10;12.63;;;15.20;99.90;;;;;;5057892;28;20602;-54
2022/08/31 06:26:58;;;;;;;17.35;12.80;;;15.20;99.90;;;;;;5076661;28;20044;-54
2022/08/31 06:29:32;;;;;;;15.70;12.60;;;15.20;99.90;;;;;;5041536;28;20051;-52
2022/08/31 06:32:06;;;;;;;14.98;12.10;;;15.20;99.90;;;;;;5042518;28;20770;-54
2022/08/31 06:34:39;;;;;;;13.82;10.02;;;15.20;99.90;;;;;;5066533;28;20032;-51
2022/08/31 06:37:33;;;;;;;14.18;10.77;;;15.20;99.90;;;;;;5032078;28;20707;-53
2022/08/31 06:40:28;;;;;;;13.85;10.43;;;15.20;99.90;;;;;;5047090;28;20806;-54
2022/08/31 06:43:21;;;;;;;12.05;9.85;;;15.20;99.90;;;;;;5054034;28;20052;-54
2022/08/31 06:45:57;;;;;;;12.07;9.48;;;15.30;99.90;;;;;;5038547;28;20047;-54
2022/08/31 06:48:33;;;;;;;15.52;12.77;;;15.30;99.90;;;;;;5054825;28;20102;-54
2022/08/31 06:51:02;;;;;;;13.02;10.23;;;15.30;99.90;;;;;;5054944;28;20040;-55
2022/08/31 06:53:31;;;;;;;13.73;10.88;;;15.30;99.90;;;;;;5054158;28;20075;-57
2022/08/31 06:56:09;;;;;;;12.75;11.20;;;15.30;99.90;;;;;;5055244;28;20048;-54
2022/08/31 06:59:10;;;;;;;13.38;11.55;;;15.30;99.90;;;;;;5021206;28;20056;-51
2022/08/31 07:02:08;;;;;;;14.40;11.40;;;15.30;99.90;;;;;;5029443;28;20108;-59
2022/08/31 07:04:38;;;;;;;12.10;10.77;;;15.30;99.90;;;;;;5035379;28;20926;-52
2022/08/31 07:07:10;;;;;;;12.90;10.73;;;15.30;99.90;;;;;;5037255;28;20052;-52
2022/08/31 07:09:40;;;;;;;13.65;10.48;;;15.30;99.90;;;;;;5041330;28;20072;-52
2022/08/31 07:12:09;;;;;;;18.38;10.65;;;15.30;99.90;;;;;;5008049;28;20044;-51
2022/08/31 07:14:38;;;;;;;11.45;10.18;;;15.30;99.90;;;;;;5048969;28;20511;-52
2022/08/31 07:17:07;;;;;;;11.70;9.50;;;15.30;99.90;;;;;;5068967;28;20131;-52
2022/08/31 07:19:35;;;;;;;9.90;8.77;;;15.30;99.90;;;;;;5057350;28;20055;-52
2022/08/31 07:22:09;;;;;;;10.95;8.82;;;15.30;99.90;;;;;;5057327;28;20152;-54
2022/08/31 07:24:44;;;;;;;12.13;8.70;;;15.30;99.90;;;;;;5056297;28;20048;-53
2022/08/31 07:27:17;;;;;;;15.02;9.63;;;15.30;99.90;;;;;;5075299;28;20051;-55
2022/08/31 07:29:52;;;;;;;11.35;9.90;;;15.30;99.90;;;;;;5026437;28;20214;-53
2022/08/31 07:32:22;;;;;;;10.88;9.57;;;15.30;99.90;;;;;;5057291;28;20799;-54
2022/08/31 07:34:51;;;;;;;14.35;11.68;;;15.30;99.90;;;;;;5072606;28;20055;-53
2022/08/31 07:43:12;;;;;;;11.73;10.48;;;15.30;99.90;;;;;;5056840;28;20967;-53
2022/08/31 07:45:41;;;;;;;10.65;9.48;;;15.30;99.90;;;;;;5057668;28;20632;-51
2022/08/31 07:48:14;;;;;;;13.73;9.75;;;15.30;99.90;;;;;;5056259;28;20289;-54
2022/08/31 07:51:09;;;;;;;9.75;8.68;;;15.30;99.90;;;;;;5042663;28;20721;-53
2022/08/31 07:54:00;;;;;;;11.20;9.73;;;15.30;99.90;;;;;;5060416;28;20055;-53
2022/08/31 07:56:41;;;;;;;10.63;9.43;;;15.30;99.90;;;;;;5041895;28;20538;-51
2022/08/31 07:59:13;;;;;;;10.32;9.13;;;15.40;99.90;;;;;;5041299;28;20190;-53
2022/08/31 08:01:45;;;;;;;11.35;10.25;;;15.40;99.90;;;;;;5056900;28;20044;-53
2022/08/31 08:04:23;;;;;;;12.10;8.93;;;15.40;99.90;;;;;;5053997;28;20513;-51
2022/08/31 08:07:13;;;;;;;10.55;9.45;;;15.40;99.90;;;;;;5074609;28;20055;-52
2022/08/31 08:10:12;;;;;;;10.73;8.73;;;15.40;99.90;;;;;;5014917;28;20508;-53
2022/08/31 08:13:01;;;;;;;10.60;8.75;;;15.40;99.90;;;;;;5054442;28;20273;-52
2022/08/31 08:16:04;;;;;;;9.77;8.43;;;15.50;99.90;;;;;;5054216;28;20048;-55
2022/08/31 08:18:51;;;;;;;13.00;9.85;;;15.50;99.90;;;;;;5053884;28;20497;-54
2022/08/31 08:21:25;;;;;;;12.60;9.80;;;15.50;99.90;;;;;;5005465;28;20045;-53
2022/08/31 08:23:54;;;;;;;10.57;9.55;;;15.60;99.90;;;;;;5054242;28;20707;-57
2022/08/31 08:26:48;;;;;;;11.05;9.85;;;15.60;99.90;;;;;;5054139;28;20736;-52
2022/08/31 08:29:36;;;;;;;14.43;10.57;;;15.70;99.90;;;;;;5026203;28;20048;-57
2022/08/31 08:32:13;;;;;;;12.73;10.50;;;15.80;99.90;;;;;;5020384;28;20040;-53
2022/08/31 08:34:44;;;;;;;14.75;10.65;;;15.80;99.90;;;;;;5021495;28;20056;-54
2022/08/31 08:37:13;;;;;;;13.98;10.27;;;15.80;99.90;;;;;;5026567;28;20040;-54
2022/08/31 08:39:41;;;;;;;13.57;11.40;;;15.80;99.90;;;;;;5009543;28;20592;-54
2022/08/31 08:42:19;;;;;;;15.30;12.90;;;15.90;99.90;;;;;;5030583;28;20128;-53
2022/08/31 08:44:46;;;;;;;12.23;10.80;;;15.90;99.90;;;;;;5027452;28;20289;-53
2022/08/31 08:47:21;;;;;;;14.13;10.23;;;15.90;99.90;;;;;;5030613;28;20036;-53
2022/08/31 08:50:00;;;;;;;17.05;12.60;;;15.90;99.90;;;;;;4978375;28;20126;-52
2022/08/31 08:52:31;;;;;;;14.15;12.50;;;15.90;99.90;;;;;;5013268;28;20040;-53
2022/08/31 08:55:04;;;;;;;18.58;14.80;;;16.00;99.90;;;;;;4992661;28;20040;-52
2022/08/31 08:57:38;;;;;;;16.30;12.45;;;16.00;99.90;;;;;;5010827;28;20577;-54
2022/08/31 09:00:14;;;;;;;15.18;13.45;;;16.00;99.90;;;;;;5013809;28;20110;-54
2022/08/31 09:02:54;;;;;;;15.50;12.80;;;16.00;99.90;;;;;;5010194;28;20128;-55
2022/08/31 09:05:37;;;;;;;15.38;12.95;;;16.00;99.90;;;;;;5006484;28;20055;-54
2022/08/31 09:08:27;;;;;;;15.43;13.30;;;16.00;99.90;;;;;;5009077;28;20228;-70
2022/08/31 09:11:21;;;;;;;13.52;11.68;;;16.10;99.90;;;;;;5030101;28;20044;-54
2022/08/31 09:13:57;;;;;;;11.52;10.10;;;16.10;99.90;;;;;;5014544;28;20130;-56
2022/08/31 09:16:46;;;;;;;14.30;12.30;;;16.00;99.90;;;;;;5009741;28;20076;-54
2022/08/31 09:19:18;;;;;;;12.43;9.40;;;16.00;99.90;;;;;;5010283;28;20044;-54
2022/08/31 09:21:53;;;;;;;11.52;8.93;;;16.00;99.90;;;;;;5032623;28;20072;-53
2022/08/31 09:24:26;;;;;;;9.27;8.38;;;16.00;99.90;;;;;;4993347;28;20569;-55
2022/08/31 09:27:19;;;;;;;10.68;9.50;;;16.00;99.90;;;;;;5010524;28;20329;-54
2022/08/31 09:29:54;;;;;;;10.73;9.60;;;16.10;99.90;;;;;;5027529;28;20332;-54
2022/08/31 09:32:30;;;;;;;10.98;8.00;;;16.00;99.90;;;;;;5030967;28;20052;-53
2022/08/31 09:35:00;;;;;;;11.23;9.82;;;16.00;99.90;;;;;;5022705;28;20348;-53
2022/08/31 09:37:58;;;;;;;14.65;10.57;;;16.00;99.90;;;;;;5007542;28;20163;-53
2022/08/31 09:40:37;;;;;;;13.02;11.20;;;16.00;99.90;;;;;;5010999;28;20136;-54
2022/08/31 09:43:22;;;;;;;13.82;12.25;;;16.10;99.90;;;;;;5030639;28;20040;-54
2022/08/31 09:46:01;;;;;;;13.20;10.63;;;16.00;99.90;;;;;;5028004;28;20032;-52
2022/08/31 09:48:42;;;;;;;14.25;11.57;;;16.00;99.90;;;;;;4994248;28;20170;-54
2022/08/31 09:51:19;;;;;;;12.95;11.07;;;16.00;99.90;;;;;;5029344;28;20542;-54
2022/08/31 09:56:56;;;;;;;14.18;11.80;;;16.10;99.90;;;;;;5024859;28;20784;-53
2022/08/31 09:59:36;;;;;;;14.48;10.75;;;16.10;99.90;;;;;;5026892;28;20104;-54
2022/08/31 10:02:27;;;;;;;13.20;11.82;;;16.10;99.90;;;;;;5027294;28;20037;-53
2022/08/31 10:05:02;;;;;;;12.65;10.93;;;16.20;99.90;;;;;;5020724;28;20774;-55
2022/08/31 10:08:10;;;;;;;18.33;12.93;;;16.20;99.90;;;;;;5007698;28;20147;-54
2022/08/31 10:10:42;;;;;;;19.13;13.70;;;16.30;99.90;;;;;;4986765;28;20976;-54
2022/08/31 10:13:26;;;;;;;16.25;12.60;;;16.40;99.90;;;;;;4996609;28;20076;-54
2022/08/31 10:16:06;;;;;;;17.30;12.00;;;16.30;99.90;;;;;;5030405;28;20086;-54
2022/08/31 10:18:58;;;;;;;15.00;12.75;;;16.30;99.90;;;;;;4998763;28;20120;-53
2022/08/31 10:21:44;;;;;;;14.32;10.52;;;16.30;99.90;;;;;;5016017;28;20039;-56
2022/08/31 10:24:27;;;;;;;12.25;10.95;;;16.30;99.90;;;;;;5012730;28;20702;-54
2022/08/31 10:27:04;;;;;;;14.20;12.77;;;16.20;99.90;;;;;;5013350;28;20052;-55
2022/08/31 10:29:41;;;;;;;15.30;12.82;;;16.20;99.90;;;;;;5013043;28;20665;-54
2022/08/31 10:32:38;;;;;;;11.38;10.23;;;16.20;99.90;;;;;;5035113;28;20040;-55
2022/08/31 10:35:10;;;;;;;13.20;11.45;;;16.10;99.90;;;;;;5028038;28;20205;-54
2022/08/31 10:38:08;;;;;;;17.50;12.65;;;16.10;99.90;;;;;;4998697;28;20421;-64
2022/08/31 10:40:59;;;;;;;16.10;12.25;;;16.10;99.90;;;;;;5009476;28;20210;-56
2022/08/31 10:44:03;;;;;;;14.63;12.95;;;16.10;99.90;;;;;;5012142;28;20452;-54
2022/08/31 10:46:33;;;;;;;13.05;11.65;;;16.20;99.90;;;;;;5031659;28;20032;-54
2022/08/31 10:49:03;;;;;;;11.40;10.30;;;16.20;99.90;;;;;;5016825;28;21023;-54
2022/08/31 10:52:00;;;;;;;13.70;12.27;;;16.20;99.90;;;;;;5010800;28;20033;-53
2022/08/31 10:54:38;;;;;;;11.05;9.82;;;16.40;99.90;;;;;;5014445;28;20054;-54
2022/08/31 10:57:31;;;;;;;11.88;9.98;;;16.40;99.90;;;;;;5032400;28;20044;-54
2022/08/31 11:00:40;;;;;;;10.68;9.57;;;16.50;99.90;;;;;;5031610;28;20271;-53
2022/08/31 11:03:09;;;;;;;12.93;11.30;;;16.60;99.90;;;;;;5032343;28;20044;-54
2022/08/31 11:05:58;;;;;;;11.70;10.02;;;16.70;99.90;;;;;;5009581;28;20051;-53
2022/08/31 11:08:48;;;;;;;13.52;10.35;;;16.90;99.90;;;;;;5006508;28;20649;-54
2022/08/31 11:11:29;;;;;;;10.15;7.80;;;17.00;99.90;;;;;;5021288;28;20236;-54
2022/08/31 11:14:18;;;;;;;9.52;6.85;;;17.10;99.90;;;;;;5006148;28;20929;-53
2022/08/31 11:17:24;;;;;;;11.43;7.60;;;17.20;99.90;;;;;;5008513;28;20183;-53
2022/08/31 11:20:33;;;;;;;8.30;7.28;;;17.40;99.90;;;;;;4975016;28;20048;-54
2022/08/31 11:23:25;;;;;;;12.33;7.60;;;17.50;99.90;;;;;;4990049;28;20115;-53
2022/08/31 11:26:11;;;;;;;10.25;7.75;;;17.60;99.90;;;;;;5007185;28;20836;-54
2022/08/31 11:28:44;;;;;;;11.10;8.07;;;17.60;99.90;;;;;;5012964;28;20125;-54
2022/08/31 11:31:22;;;;;;;9.63;8.65;;;17.70;99.90;;;;;;4993383;28;20247;-54
2022/08/31 11:33:56;;;;;;;11.55;8.75;;;17.80;99.90;;;;;;4992685;28;20037;-54
2022/08/31 11:36:48;;;;;;;12.63;9.48;;;17.80;99.90;;;;;;4998303;28;20138;-56
2022/08/31 11:39:25;;;;;;;11.20;9.65;;;17.90;99.90;;;;;;5032346;28;20158;-55
2022/08/31 11:41:53;;;;;;;10.20;8.93;;;18.00;99.90;;;;;;4997392;28;20565;-53
2022/08/31 11:44:42;;;;;;;10.02;8.95;;;18.00;99.90;;;;;;5006170;28;20751;-55
2022/08/31 11:47:27;;;;;;;10.40;9.30;;;18.00;99.90;;;;;;5015875;28;20565;-54
2022/08/31 11:50:02;;;;;;;12.95;10.55;;;17.90;99.90;;;;;;5005736;28;20577;-54
2022/08/31 11:52:52;;;;;;;9.73;8.73;;;17.90;99.90;;;;;;5013389;28;20032;-54
2022/08/31 11:56:03;;;;;;;8.77;7.80;;;17.90;99.90;;;;;;4992655;28;20043;-55
2022/08/31 11:58:33;;;;;;;10.43;8.82;;;17.90;99.90;;;;;;4979707;28;20137;-55
2022/08/31 12:01:08;;;;;;;12.23;9.80;;;17.90;99.90;;;;;;5011752;28;20351;-55
2022/08/31 12:03:49;;;;;;;10.95;9.85;;;17.90;99.90;;;;;;5012595;28;20386;-59
2022/08/31 12:06:26;;;;;;;12.60;8.85;;;17.90;99.90;;;;;;5026742;28;20048;-56
2022/08/31 12:09:18;;;;;;;11.05;8.73;;;17.80;99.90;;;;;;5029315;28;20035;-56
2022/08/31 12:12:09;;;;;;;11.30;10.07;;;17.90;99.90;;;;;;5018774;28;20043;-55
2022/08/31 12:14:49;;;;;;;13.05;9.32;;;18.00;99.90;;;;;;4999429;28;20032;-56
2022/08/31 12:17:37;;;;;;;11.35;9.25;;;18.00;99.90;;;;;;5026170;28;20390;-56
2022/08/31 12:20:14;;;;;;;11.05;9.82;;;18.00;99.90;;;;;;4995084;28;20052;-56
2022/08/31 12:26:19;;;;;;;11.05;8.38;;;18.00;99.90;;;;;;5027479;28;20265;-56
2022/08/31 12:29:18;;;;;;;10.48;8.77;;;18.00;99.90;;;;;;5025002;28;20043;-56
2022/08/31 12:32:08;;;;;;;9.23;8.10;;;18.00;99.90;;;;;;5010402;28;20052;-55
2022/08/31 12:34:55;;;;;;;10.52;8.23;;;18.10;99.90;;;;;;5008330;28;20289;-56
2022/08/31 12:37:23;;;;;;;8.52;7.40;;;18.10;99.90;;;;;;5013720;28;20055;-56
2022/08/31 12:40:26;;;;;;;9.73;8.40;;;18.10;99.90;;;;;;4989568;28;20049;-56
2022/08/31 12:42:58;;;;;;;9.88;6.90;;;18.10;99.90;;;;;;4990708;28;20066;-56
2022/08/31 12:45:38;;;;;;;11.10;7.57;;;18.10;99.90;;;;;;4991429;28;20587;-56
2022/08/31 12:48:31;;;;;;;8.85;7.75;;;18.00;99.90;;;;;;4974691;28;20102;-57
2022/08/31 12:51:10;;;;;;;9.65;8.65;;;17.90;99.90;;;;;;5008155;28;20190;-56
2022/08/31 12:53:46;;;;;;;14.55;9.98;;;17.90;99.90;;;;;;4991359;28;20052;-57
2022/08/31 12:56:16;;;;;;;10.43;8.17;;;17.90;99.90;;;;;;4989125;28;20041;-57
2022/08/31 12:59:04;;;;;;;16.58;11.60;;;17.90;99.90;;;;;;4991490;28;20153;-55
2022/08/31 13:01:37;;;;;;;12.95;11.25;;;17.90;99.90;;;;;;4991077;28;20826;-58
2022/08/31 13:04:05;;;;;;;11.23;10.02;;;17.90;99.90;;;;;;5008332;28;20041;-56
2022/08/31 13:06:36;;;;;;;11.38;9.35;;;17.90;99.90;;;;;;4992586;28;20098;-56
2022/08/31 13:09:04;;;;;;;10.70;9.38;;;17.90;99.90;;;;;;5017453;28;20036;-55
2022/08/31 13:11:35;;;;;;;13.25;10.60;;;18.00;99.90;;;;;;4977597;28;20037;-55
2022/08/31 13:14:21;;;;;;;11.52;8.63;;;18.10;99.90;;;;;;5021831;28;20032;-56
2022/08/31 13:16:49;;;;;;;11.02;9.80;;;18.20;99.90;;;;;;4991629;28;20155;-56
2022/08/31 13:19:26;;;;;;;11.27;10.10;;;18.30;99.90;;;;;;4980734;28;20252;-56
2022/08/31 13:22:08;;;;;;;14.65;9.00;;;18.40;99.90;;;;;;5012571;28;20040;-56
2022/08/31 13:24:41;;;;;;;13.95;9.43;;;18.40;99.90;;;;;;5027299;28;20040;-56
2022/08/31 13:27:26;;;;;;;12.23;10.73;;;18.50;99.90;;;;;;5009577;28;20104;-56
2022/08/31 13:29:55;;;;;;;11.23;8.82;;;18.60;99.90;;;;;;5006247;28;20133;-57
2022/08/31 13:32:31;;;;;;;11.38;9.90;;;18.60;99.90;;;;;;5026270;28;20196;-56
2022/08/31 13:35:02;;;;;;;11.73;9.52;;;18.60;99.90;;;;;;5008830;28;20336;-56
2022/08/31 13:37:36;;;;;;;16.38;11.40;;;18.60;99.90;;;;;;5005462;28;20542;-57
2022/08/31 13:40:09;;;;;;;12.65;10.27;;;18.70;99.90;;;;;;5011237;28;20048;-56